createdAt,value
2023-02-06T00:02:25.374Z,101796.25
2023-02-06T00:05:13.098Z,101798.38
2023-02-06T00:07:52.051Z,101804.56
2023-02-06T00:10:38.833Z,101806.66
2023-02-06T00:13:11.005Z,101815.63
2023-02-06T00:15:58.229Z,101814.13
2023-02-06T00:18:36.812Z,101807.34
2023-02-06T00:21:25.053Z,101806.25
2023-02-06T00:24:08.751Z,101813.00
2023-02-06T00:26:49.906Z,101811.09
2023-02-06T00:29:30.048Z,101812.00
2023-02-06T00:32:08.359Z,101818.34
2023-02-06T00:34:47.180Z,101822.69
2023-02-06T00:37:29.873Z,101822.47
2023-02-06T00:40:05.522Z,101827.53
2023-02-06T00:42:48.093Z,101821.25
2023-02-06T00:45:36.119Z,101824.81
2023-02-06T00:48:24.438Z,101828.78
2023-02-06T00:51:03.782Z,101821.28
2023-02-06T00:54:00.518Z,101826.63
2023-02-06T00:56:35.046Z,101822.50
2023-02-06T00:59:27.887Z,101816.72
2023-02-06T01:01:58.221Z,101818.81
2023-02-06T01:04:31.194Z,101811.03
2023-02-06T01:07:12.655Z,101816.31
2023-02-06T01:09:48.476Z,101820.94
2023-02-06T01:12:26.792Z,101823.59
2023-02-06T01:15:04.429Z,101826.66
2023-02-06T01:17:40.753Z,101822.84
2023-02-06T01:20:24.858Z,101820.31
2023-02-06T01:23:13.819Z,101828.50
2023-02-06T01:25:52.125Z,101825.03
2023-02-06T01:28:35.267Z,101834.72
2023-02-06T01:31:23.195Z,101819.19
2023-02-06T01:33:54.235Z,101825.84
2023-02-06T01:36:28.081Z,101818.97
2023-02-06T01:39:20.289Z,101821.34
2023-02-06T01:41:54.060Z,101812.81
2023-02-06T01:44:33.606Z,101821.16
2023-02-06T01:47:15.419Z,101819.66
2023-02-06T01:49:54.039Z,101824.50
2023-02-06T01:52:34.809Z,101818.44
2023-02-06T01:55:28.678Z,101825.25
2023-02-06T01:58:05.912Z,101821.25
2023-02-06T02:00:44.731Z,101813.41
2023-02-06T02:03:26.326Z,101809.00
2023-02-06T02:06:04.856Z,101799.09
2023-02-06T02:08:50.071Z,101803.06
2023-02-06T02:12:01.231Z,101807.59
2023-02-06T02:14:36.802Z,101802.72
2023-02-06T02:17:33.401Z,101808.19
2023-02-06T02:20:42.136Z,101804.00
2023-02-06T02:23:37.630Z,101809.03
2023-02-06T02:26:39.844Z,101811.13
2023-02-06T02:29:54.206Z,101807.88
2023-02-06T02:33:05.114Z,101802.72
2023-02-06T02:35:46.458Z,101801.00
2023-02-06T02:38:24.972Z,101803.44
2023-02-06T02:41:33.892Z,101801.38
2023-02-06T02:44:51.087Z,101807.34
2023-02-06T02:47:30.517Z,101803.78
2023-02-06T02:50:12.872Z,101800.31
2023-02-06T02:53:02.055Z,101803.28
2023-02-06T02:55:35.541Z,101800.19
2023-02-06T02:58:22.977Z,101798.66
2023-02-06T03:01:11.625Z,101805.28
2023-02-06T03:03:56.764Z,101808.09
2023-02-06T03:06:44.782Z,101812.63
2023-02-06T03:09:38.594Z,101810.09
2023-02-06T03:12:38.002Z,101809.75
2023-02-06T03:15:33.077Z,101814.56
2023-02-06T03:18:41.493Z,101814.63
2023-02-06T03:21:42.980Z,101815.75
2023-02-06T03:24:47.236Z,101820.34
2023-02-06T03:27:27.454Z,101815.03
2023-02-06T03:30:12.081Z,101822.03
2023-02-06T03:32:56.858Z,101824.97
2023-02-06T03:35:59.738Z,101822.47
2023-02-06T03:38:40.908Z,101823.28
2023-02-06T03:41:24.112Z,101826.78
2023-02-06T03:43:57.543Z,101827.59
2023-02-06T03:46:31.967Z,101835.41
2023-02-06T03:49:10.009Z,101832.84
2023-02-06T03:51:48.643Z,101838.19
2023-02-06T03:54:31.037Z,101842.56
2023-02-06T03:57:12.365Z,101826.78
2023-02-06T03:59:58.157Z,101829.38
2023-02-06T04:02:32.257Z,101814.44
2023-02-06T04:05:05.218Z,101810.81
2023-02-06T04:07:39.697Z,101810.69
2023-02-06T04:10:15.299Z,101813.97
2023-02-06T04:12:56.569Z,101828.75
2023-02-06T04:15:34.166Z,101822.66
2023-02-06T04:18:25.184Z,101822.78
2023-02-06T04:21:14.019Z,101832.06
2023-02-06T04:23:46.544Z,101820.75
2023-02-06T04:26:27.100Z,101827.59
2023-02-06T04:29:02.340Z,101819.47
2023-02-06T04:31:45.975Z,101825.56
2023-02-06T04:34:18.011Z,101824.56
2023-02-06T04:36:48.439Z,101819.81
2023-02-06T04:39:27.050Z,101826.97
2023-02-06T04:42:12.037Z,101827.03
2023-02-06T04:44:48.379Z,101832.84
2023-02-06T04:47:24.352Z,101833.16
2023-02-06T04:49:58.822Z,101833.25
2023-02-06T04:52:50.306Z,101829.97
2023-02-06T04:55:23.218Z,101833.53
2023-02-06T04:58:09.134Z,101826.53
2023-02-06T05:00:53.761Z,101827.41
2023-02-06T05:03:43.741Z,101833.44
2023-02-06T05:06:13.734Z,101836.81
2023-02-06T05:08:45.217Z,101836.09
2023-02-06T05:11:18.138Z,101837.19
2023-02-06T05:13:58.242Z,101840.38
2023-02-06T05:19:34.197Z,101842.41
2023-02-06T05:22:25.053Z,101838.88
2023-02-06T05:25:10.034Z,101848.63
2023-02-06T05:27:42.941Z,101852.19
2023-02-06T05:30:26.862Z,101843.09
2023-02-06T05:33:19.854Z,101831.94
2023-02-06T05:39:07.962Z,101851.38
2023-02-06T05:41:43.865Z,101846.97
2023-02-06T05:44:20.548Z,101849.47
2023-02-06T05:46:53.022Z,101859.94
2023-02-06T05:49:31.713Z,101859.97
2023-02-06T05:52:08.737Z,101855.00
2023-02-06T05:54:40.365Z,101852.31
2023-02-06T05:57:26.766Z,101854.00
2023-02-06T06:00:01.320Z,101860.53
2023-02-06T06:02:39.034Z,101866.72
2023-02-06T06:05:20.243Z,101865.72
2023-02-06T06:07:55.075Z,101858.03
2023-02-06T06:10:38.081Z,101851.69
2023-02-06T06:13:13.655Z,101847.16
2023-02-06T06:16:00.853Z,101845.94
2023-02-06T06:18:39.612Z,101852.75
2023-02-06T06:21:22.021Z,101850.81
2023-02-06T06:24:07.928Z,101849.78
2023-02-06T06:26:53.830Z,101844.47
2023-02-06T06:29:34.760Z,101847.69
2023-02-06T06:32:18.212Z,101843.06
2023-02-06T06:35:03.228Z,101848.06
2023-02-06T06:37:36.005Z,101845.72
2023-02-06T06:40:13.114Z,101838.44
2023-02-06T06:42:59.294Z,101843.31
2023-02-06T06:45:43.661Z,101839.69
2023-02-06T06:48:23.392Z,101844.19
2023-02-06T06:51:13.587Z,101845.72
2023-02-06T06:53:53.662Z,101847.22
2023-02-06T06:56:40.181Z,101845.00
2023-02-06T06:59:18.164Z,101847.09
2023-02-06T07:02:03.840Z,101849.47
2023-02-06T07:05:00.757Z,101860.41
2023-02-06T07:10:45.565Z,101841.47
2023-02-06T07:13:26.588Z,101846.28
2023-02-06T07:16:03.435Z,101847.91
2023-02-06T07:18:58.249Z,101853.81
2023-02-06T07:21:45.202Z,101862.28
2023-02-06T07:24:32.396Z,101854.41
2023-02-06T07:27:14.639Z,101849.06
2023-02-06T07:30:15.962Z,101850.25
2023-02-06T07:32:59.464Z,101859.00
2023-02-06T07:35:52.641Z,101859.41
2023-02-06T07:38:35.782Z,101865.75
2023-02-06T07:41:25.282Z,101864.75
2023-02-06T07:44:06.087Z,101864.56
2023-02-06T07:46:53.613Z,101863.66
2023-02-06T07:49:20.578Z,101858.47
2023-02-06T07:51:56.961Z,101859.81
2023-02-06T07:54:44.297Z,101860.00
2023-02-06T07:57:25.989Z,101860.81
2023-02-06T08:00:08.333Z,101854.94
2023-02-06T08:02:54.007Z,101856.97
2023-02-06T08:05:33.006Z,101860.56
2023-02-06T08:08:06.658Z,101862.06
2023-02-06T08:10:48.545Z,101860.59
2023-02-06T08:13:39.028Z,101861.13
2023-02-06T08:16:39.568Z,101862.09
2023-02-06T08:19:18.253Z,101863.22
2023-02-06T08:22:02.373Z,101856.31
2023-02-06T08:24:40.476Z,101863.34
2023-02-06T08:27:21.807Z,101869.25
2023-02-06T08:30:11.832Z,101861.66
2023-02-06T08:32:48.648Z,101854.28
2023-02-06T08:35:28.000Z,101856.63
2023-02-06T08:38:13.219Z,101855.06
2023-02-06T08:40:48.578Z,101848.38
2023-02-06T08:43:42.917Z,101845.19
2023-02-06T08:46:32.077Z,101852.34
2023-02-06T08:49:14.981Z,101840.38
2023-02-06T08:51:55.159Z,101837.53
2023-02-06T08:54:42.327Z,101847.53
2023-02-06T08:57:17.658Z,101844.59
2023-02-06T09:00:02.765Z,101855.19
2023-02-06T09:02:45.314Z,101845.16
2023-02-06T09:05:24.992Z,101846.66
2023-02-06T09:08:11.800Z,101847.84
2023-02-06T09:10:44.456Z,101846.22
2023-02-06T09:13:25.787Z,101850.56
2023-02-06T09:16:13.926Z,101850.38
2023-02-06T09:18:55.141Z,101857.72
2023-02-06T09:21:39.340Z,101850.59
2023-02-06T09:24:23.590Z,101852.56
2023-02-06T09:27:08.799Z,101847.09
2023-02-06T09:29:48.324Z,101850.78
2023-02-06T09:32:22.144Z,101851.31
2023-02-06T09:35:05.824Z,101847.50
2023-02-06T09:37:45.318Z,101851.19
2023-02-06T09:40:28.163Z,101850.22
2023-02-06T09:43:08.922Z,101845.78
2023-02-06T09:45:45.201Z,101839.81
2023-02-06T09:48:35.993Z,101840.81
2023-02-06T09:51:19.254Z,101842.28
2023-02-06T09:54:09.205Z,101833.25
2023-02-06T09:57:02.122Z,101832.00
2023-02-06T09:59:48.550Z,101822.91
2023-02-06T10:02:39.970Z,101822.31
2023-02-06T10:05:33.129Z,101825.38
2023-02-06T10:08:21.504Z,101818.84
2023-02-06T10:11:00.209Z,101817.91
2023-02-06T10:13:49.896Z,101817.19
2023-02-06T10:16:38.067Z,101811.94
2023-02-06T10:19:27.293Z,101810.03
2023-02-06T10:22:10.960Z,101812.22
2023-02-06T10:25:17.004Z,101811.16
2023-02-06T10:27:57.626Z,101809.84
2023-02-06T10:30:48.708Z,101810.59
2023-02-06T10:33:32.746Z,101802.63
2023-02-06T10:36:33.226Z,101806.59
2023-02-06T10:39:27.047Z,101798.78
2023-02-06T10:42:15.595Z,101796.63
2023-02-06T10:45:20.278Z,101796.03
2023-02-06T10:48:07.775Z,101800.88
2023-02-06T10:51:10.263Z,101788.84
2023-02-06T10:53:54.706Z,101782.19
2023-02-06T10:56:33.307Z,101781.88
2023-02-06T10:59:42.014Z,101772.56
2023-02-06T11:02:28.301Z,101770.47
2023-02-06T11:05:08.304Z,101772.41
2023-02-06T11:07:53.882Z,101765.84
2023-02-06T11:10:27.039Z,101778.59
2023-02-06T11:13:08.440Z,101778.03
2023-02-06T11:15:49.736Z,101765.09
2023-02-06T11:18:27.378Z,101763.41
2023-02-06T11:20:57.170Z,101764.72
2023-02-06T11:23:35.064Z,101759.75
2023-02-06T11:26:22.686Z,101756.97
2023-02-06T11:29:08.670Z,101751.72
2023-02-06T11:32:00.185Z,101752.22
2023-02-06T11:34:44.495Z,101756.19
2023-02-06T11:37:32.867Z,101745.69
2023-02-06T11:40:35.933Z,101749.41
2023-02-06T11:43:24.652Z,101748.63
2023-02-06T11:46:14.914Z,101735.34
2023-02-06T11:49:24.757Z,101736.34
2023-02-06T11:52:34.184Z,101730.81
2023-02-06T11:55:07.731Z,101733.44
2023-02-06T11:57:43.100Z,101724.31
2023-02-06T12:00:29.275Z,101720.38
2023-02-06T12:03:08.581Z,101719.28
2023-02-06T12:05:44.494Z,101715.78
2023-02-06T12:08:21.940Z,101719.63
2023-02-06T12:11:20.293Z,101715.94
2023-02-06T12:14:05.239Z,101710.13
2023-02-06T12:16:42.483Z,101703.22
2023-02-06T12:19:54.970Z,101702.09
2023-02-06T12:22:36.161Z,101694.53
2023-02-06T12:25:15.285Z,101696.56
2023-02-06T12:27:52.078Z,101699.13
2023-02-06T12:30:40.117Z,101696.00
2023-02-06T12:33:22.522Z,101699.81
2023-02-06T12:36:03.225Z,101695.81
2023-02-06T12:38:52.869Z,101689.66
2023-02-06T12:41:43.062Z,101688.03
2023-02-06T12:44:45.519Z,101694.13
2023-02-06T12:47:32.126Z,101690.28
2023-02-06T12:50:19.379Z,101686.91
2023-02-06T12:53:15.200Z,101681.22
2023-02-06T12:56:15.752Z,101674.94
2023-02-06T12:58:48.677Z,101673.91
2023-02-06T13:01:45.676Z,101674.13
2023-02-06T13:04:34.304Z,101664.13
2023-02-06T13:07:18.649Z,101675.38
2023-02-06T13:10:06.016Z,101672.09
2023-02-06T13:12:46.480Z,101669.81
2023-02-06T13:15:32.837Z,101677.69
2023-02-06T13:18:38.185Z,101682.00
2023-02-06T13:21:37.285Z,101679.19
2023-02-06T13:24:18.660Z,101684.03
2023-02-06T13:26:56.688Z,101680.03
2023-02-06T13:29:33.790Z,101677.91
2023-02-06T13:32:18.746Z,101671.22
2023-02-06T13:34:59.992Z,101677.41
2023-02-06T13:37:44.503Z,101673.69
2023-02-06T13:40:35.617Z,101676.34
2023-02-06T13:43:13.847Z,101679.09
2023-02-06T13:45:57.937Z,101670.06
2023-02-06T13:49:05.766Z,101670.88
2023-02-06T13:52:03.135Z,101681.75
2023-02-06T13:54:51.353Z,101688.94
2023-02-06T13:57:40.158Z,101684.06
2023-02-06T14:00:23.033Z,101681.00
2023-02-06T14:03:16.420Z,101684.00
2023-02-06T14:05:56.735Z,101689.41
2023-02-06T14:08:38.072Z,101693.56
2023-02-06T14:11:19.957Z,101701.13
2023-02-06T14:14:28.442Z,101699.31
2023-02-06T14:17:33.654Z,101700.47
2023-02-06T14:20:30.438Z,101696.38
2023-02-06T14:23:15.754Z,101701.97
2023-02-06T14:26:07.818Z,101707.41
2023-02-06T14:28:53.154Z,101710.25
2023-02-06T14:31:50.675Z,101706.44
2023-02-06T14:34:43.667Z,101714.25
2023-02-06T14:37:38.145Z,101708.50
2023-02-06T14:40:29.314Z,101720.81
2023-02-06T14:43:12.988Z,101724.69
2023-02-06T14:46:07.038Z,101720.38
2023-02-06T14:48:46.002Z,101718.09
2023-02-06T14:51:36.554Z,101706.75
2023-02-06T14:54:36.853Z,101712.78
2023-02-06T14:57:26.723Z,101709.06
2023-02-06T15:00:01.126Z,101722.78
2023-02-06T15:02:35.306Z,101732.13
2023-02-06T15:05:23.091Z,101729.94
2023-02-06T15:08:05.807Z,101741.47
2023-02-06T15:10:50.593Z,101736.69
2023-02-06T15:13:38.417Z,101745.03
2023-02-06T15:16:17.725Z,101738.84
2023-02-06T15:18:53.421Z,101741.78
2023-02-06T15:21:24.946Z,101741.44
2023-02-06T15:23:58.270Z,101741.63
2023-02-06T15:27:12.384Z,101741.25
2023-02-06T15:29:57.183Z,101745.81
2023-02-06T15:32:41.871Z,101743.31
2023-02-06T15:35:32.377Z,101747.13
2023-02-06T15:38:18.270Z,101753.25
2023-02-06T15:40:59.953Z,101753.38
2023-02-06T15:43:30.675Z,101753.88
2023-02-06T15:46:10.761Z,101760.56
2023-02-06T15:48:51.212Z,101763.09
2023-02-06T15:51:39.123Z,101767.63
2023-02-06T15:54:22.425Z,101764.66
2023-02-06T15:57:24.541Z,101770.75
2023-02-06T15:59:57.316Z,101772.38
2023-02-06T16:02:37.540Z,101775.13
2023-02-06T16:05:30.561Z,101771.78
2023-02-06T16:08:13.005Z,101785.88
2023-02-06T16:10:49.613Z,101781.56
2023-02-06T16:13:25.689Z,101774.53
2023-02-06T16:16:11.691Z,101782.59
2023-02-06T16:18:46.653Z,101791.94
2023-02-06T16:21:22.458Z,101792.56
2023-02-06T16:24:02.476Z,101799.00
2023-02-06T16:27:20.953Z,101796.53
2023-02-06T16:30:01.045Z,101794.38
2023-02-06T16:32:41.781Z,101789.78
2023-02-06T16:35:19.544Z,101796.22
2023-02-06T16:38:00.657Z,101801.97
2023-02-06T16:40:40.962Z,101798.88
2023-02-06T16:43:22.511Z,101802.53
2023-02-06T16:46:02.277Z,101798.78
2023-02-06T16:48:40.759Z,101803.00
2023-02-06T16:51:20.038Z,101796.47
2023-02-06T16:53:59.191Z,101792.34
2023-02-06T16:56:37.302Z,101795.59
2023-02-06T16:59:15.541Z,101809.16
2023-02-06T17:01:58.252Z,101807.31
2023-02-06T17:04:33.029Z,101802.41
2023-02-06T17:07:11.980Z,101811.03
2023-02-06T17:09:52.797Z,101803.41
2023-02-06T17:12:33.485Z,101797.50
2023-02-06T17:15:12.631Z,101803.97
2023-02-06T17:17:47.517Z,101803.16
2023-02-06T17:20:36.199Z,101803.34
2023-02-06T17:23:19.982Z,101807.38
2023-02-06T17:26:00.679Z,101809.81
2023-02-06T17:28:43.892Z,101801.91
2023-02-06T17:31:19.042Z,101800.56
2023-02-06T17:33:52.132Z,101811.19
2023-02-06T17:36:30.060Z,101814.03
2023-02-06T17:39:05.765Z,101811.72
2023-02-06T17:41:45.909Z,101811.78
2023-02-06T17:44:24.489Z,101812.13
2023-02-06T17:47:00.342Z,101809.31
2023-02-06T17:49:32.887Z,101817.34
2023-02-06T17:52:10.579Z,101817.63
2023-02-06T17:54:55.945Z,101816.81
2023-02-06T17:57:27.985Z,101818.59
2023-02-06T18:00:11.044Z,101817.94
2023-02-06T18:02:46.611Z,101820.88
2023-02-06T18:05:27.779Z,101823.59
2023-02-06T18:08:04.277Z,101820.00
2023-02-06T18:10:47.303Z,101828.56
2023-02-06T18:13:24.440Z,101834.41
2023-02-06T18:16:01.623Z,101847.25
2023-02-06T18:18:44.499Z,101847.31
2023-02-06T18:21:25.412Z,101854.66
2023-02-06T18:24:09.712Z,101847.63
2023-02-06T18:26:53.076Z,101849.56
2023-02-06T18:29:49.434Z,101855.00
2023-02-06T18:32:27.015Z,101855.16
2023-02-06T18:35:05.672Z,101857.38
2023-02-06T18:37:44.380Z,101855.75
2023-02-06T18:40:29.795Z,101854.63
2023-02-06T18:43:08.173Z,101844.91
2023-02-06T18:45:50.904Z,101849.34
2023-02-06T18:48:42.381Z,101856.16
2023-02-06T18:51:20.907Z,101854.50
2023-02-06T18:53:56.220Z,101857.84
2023-02-06T18:56:32.601Z,101863.41
2023-02-06T18:59:20.646Z,101853.59
2023-02-06T19:02:08.247Z,101862.03
2023-02-06T19:04:45.557Z,101864.22
2023-02-06T19:07:23.889Z,101860.31
2023-02-06T19:10:18.753Z,101869.34
2023-02-06T19:13:05.164Z,101860.22
2023-02-06T19:15:53.178Z,101870.03
2023-02-06T19:18:41.940Z,101881.78
2023-02-06T19:21:34.688Z,101882.94
2023-02-06T19:24:27.059Z,101881.28
2023-02-06T19:27:02.111Z,101878.78
2023-02-06T19:29:56.476Z,101886.88
2023-02-06T19:32:45.197Z,101899.94
2023-02-06T19:35:28.422Z,101894.06
2023-02-06T19:38:12.265Z,101887.19
2023-02-06T19:40:59.220Z,101885.63
2023-02-06T19:43:47.244Z,101886.38
2023-02-06T19:46:31.614Z,101888.09
2023-02-06T19:49:08.917Z,101895.91
2023-02-06T19:51:50.901Z,101890.41
2023-02-06T19:54:29.128Z,101900.66
2023-02-06T19:57:16.147Z,101904.28
2023-02-06T19:59:48.304Z,101906.09
2023-02-06T20:02:37.422Z,101919.22
2023-02-06T20:05:18.062Z,101914.06
2023-02-06T20:07:50.799Z,101917.38
2023-02-06T20:10:39.844Z,101923.25
2023-02-06T20:13:14.496Z,101924.88
2023-02-06T20:16:06.161Z,101918.91
2023-02-06T20:18:45.049Z,101925.84
2023-02-06T20:21:41.618Z,101924.78
2023-02-06T20:24:31.999Z,101921.03
2023-02-06T20:27:18.793Z,101931.72
2023-02-06T20:30:02.689Z,101934.53
2023-02-06T20:32:39.160Z,101932.25
2023-02-06T20:35:14.890Z,101934.34
2023-02-06T20:37:50.621Z,101940.41
2023-02-06T20:40:44.681Z,101935.75
2023-02-06T20:43:28.926Z,101937.00
2023-02-06T20:46:17.480Z,101940.25
2023-02-06T20:49:05.634Z,101947.41
2023-02-06T20:52:01.341Z,101945.75
2023-02-06T20:54:39.320Z,101947.44
2023-02-06T20:57:34.622Z,101958.66
2023-02-06T21:00:12.907Z,101963.03
2023-02-06T21:03:07.453Z,101966.84
2023-02-06T21:05:42.751Z,101966.69
2023-02-06T21:08:32.303Z,101968.16
2023-02-06T21:11:11.449Z,101965.28
2023-02-06T21:13:51.972Z,101962.22
2023-02-06T21:16:30.955Z,101963.38
2023-02-06T21:19:07.724Z,101964.31
2023-02-06T21:21:48.687Z,101959.19
2023-02-06T21:24:40.434Z,101957.66
2023-02-06T21:27:24.098Z,101958.59
2023-02-06T21:30:01.939Z,101952.75
2023-02-06T21:32:52.724Z,101963.34
2023-02-06T21:35:42.933Z,101962.50
2023-02-06T21:38:33.538Z,101960.75
2023-02-06T21:41:19.025Z,101955.34
2023-02-06T21:43:57.776Z,101967.94
2023-02-06T21:46:56.932Z,101968.50
2023-02-06T21:49:32.194Z,101962.63
2023-02-06T21:52:16.248Z,101968.09
2023-02-06T21:55:07.661Z,101960.25
2023-02-06T21:57:53.716Z,101970.09
2023-02-06T22:00:35.114Z,101968.44
2023-02-06T22:03:15.010Z,101974.72
2023-02-06T22:05:53.506Z,101984.97
2023-02-06T22:08:30.892Z,101983.28
2023-02-06T22:11:31.678Z,101985.94
2023-02-06T22:14:18.552Z,101978.91
2023-02-06T22:17:04.926Z,101983.31
2023-02-06T22:19:51.156Z,101985.06
2023-02-06T22:22:35.703Z,101984.22
2023-02-06T22:25:19.752Z,101991.28
2023-02-06T22:28:05.637Z,101992.50
2023-02-06T22:30:43.931Z,101989.22
2023-02-06T22:33:24.826Z,101999.72
2023-02-06T22:36:28.944Z,101989.94
2023-02-06T22:39:11.606Z,101995.88
2023-02-06T22:42:03.516Z,101988.13
2023-02-06T22:44:56.047Z,101990.75
2023-02-06T22:47:33.898Z,101991.78
2023-02-06T22:50:22.127Z,101988.41
2023-02-06T22:53:10.525Z,101988.41
2023-02-06T22:56:10.798Z,101992.16
2023-02-06T22:58:44.927Z,101982.59
2023-02-06T23:01:37.332Z,101979.88
2023-02-06T23:04:20.708Z,102002.66
2023-02-06T23:06:54.136Z,102001.75
2023-02-06T23:09:46.866Z,101996.16
2023-02-06T23:12:25.458Z,102003.03
2023-02-06T23:15:20.936Z,102005.72
2023-02-06T23:21:16.533Z,102004.38
2023-02-06T23:23:48.961Z,102006.94
2023-02-06T23:26:29.886Z,102011.31
2023-02-06T23:29:24.362Z,102010.28
2023-02-06T23:32:08.862Z,102012.91
2023-02-06T23:35:00.029Z,102005.94
2023-02-06T23:37:51.214Z,102005.94
2023-02-06T23:40:29.254Z,102005.16
2023-02-06T23:43:05.547Z,102000.94
2023-02-06T23:45:50.934Z,102002.66
2023-02-06T23:48:31.796Z,102011.25
2023-02-06T23:51:27.023Z,102012.53
2023-02-06T23:54:07.030Z,102016.09
2023-02-06T23:56:48.805Z,102022.16
2023-02-06T23:59:34.668Z,102025.66
